createdAt,value
2022-08-28T00:00:01.161Z,987.8725
2022-08-28T00:01:00.316Z,987.8868
2022-08-28T00:02:00.480Z,987.9791
2022-08-28T00:03:00.757Z,987.9652
2022-08-28T00:04:00.789Z,987.8868
2022-08-28T00:05:01.007Z,987.8868
2022-08-28T00:06:01.104Z,987.8433
2022-08-28T00:07:00.254Z,987.9791
2022-08-28T00:08:00.460Z,987.9141
2022-08-28T00:09:00.563Z,988.097
2022-08-28T00:10:00.705Z,987.9815
2022-08-28T00:11:00.857Z,987.8603
2022-08-28T00:12:00.989Z,987.8739
2022-08-28T00:13:01.180Z,987.8895
2022-08-28T00:14:00.298Z,987.8172
2022-08-28T00:15:00.453Z,988.0051
2022-08-28T00:16:00.659Z,987.9606
2022-08-28T00:17:00.737Z,988.0107
2022-08-28T00:18:00.936Z,987.9162
2022-08-28T00:19:01.043Z,987.884
2022-08-28T00:20:01.206Z,987.962
2022-08-28T00:21:00.355Z,987.9328
2022-08-28T00:22:00.538Z,987.884
2022-08-28T00:23:00.652Z,988.0798
2022-08-28T00:24:00.798Z,987.8054
2022-08-28T00:25:00.955Z,987.8777
2022-08-28T00:26:01.094Z,987.8336
2022-08-28T00:27:01.284Z,987.8847
2022-08-28T00:28:00.397Z,987.7693
2022-08-28T00:29:00.560Z,987.9936
2022-08-28T00:30:00.716Z,987.8718
2022-08-28T00:31:00.889Z,987.9644
2022-08-28T00:32:01.040Z,987.8277
2022-08-28T00:33:01.168Z,987.8718
2022-08-28T00:34:00.314Z,987.9283
2022-08-28T00:35:00.464Z,987.9794
2022-08-28T00:36:00.611Z,988.0086
2022-08-28T00:37:00.800Z,987.921
2022-08-28T00:38:00.909Z,987.9352
2022-08-28T00:39:01.065Z,987.9144
2022-08-28T00:40:01.291Z,987.9794
2022-08-28T00:41:00.393Z,988.0086
2022-08-28T00:42:00.550Z,987.8138
2022-08-28T00:43:00.675Z,987.9728
2022-08-28T00:44:00.837Z,987.7269
2022-08-28T00:45:00.976Z,987.8287
2022-08-28T00:46:01.161Z,987.9151
2022-08-28T00:47:00.323Z,987.9151
2022-08-28T00:48:00.432Z,987.8075
2022-08-28T00:49:00.591Z,987.8075
2022-08-28T00:50:00.737Z,987.7703
2022-08-28T00:51:00.994Z,987.7999
2022-08-28T00:52:01.057Z,987.9505
2022-08-28T00:53:01.222Z,987.8659
2022-08-28T00:54:03.110Z,987.7353
2022-08-28T00:55:00.523Z,987.8673
2022-08-28T00:56:00.680Z,987.845
2022-08-28T00:57:00.847Z,987.9887
2022-08-28T00:58:00.957Z,987.7505
2022-08-28T00:59:01.128Z,987.8673
2022-08-28T01:00:00.280Z,987.9387
2022-08-28T01:01:00.437Z,987.9679
2022-08-28T01:02:00.669Z,987.8603
2022-08-28T01:03:00.868Z,987.9244
2022-08-28T01:04:00.886Z,987.7002
2022-08-28T01:05:01.032Z,987.8238
2022-08-28T01:06:01.190Z,987.7002
2022-08-28T01:07:00.361Z,987.7516
2022-08-28T01:08:00.491Z,987.7155
2022-08-28T01:09:00.636Z,987.7516
2022-08-28T01:10:00.784Z,987.7516
2022-08-28T01:11:00.935Z,987.8322
2022-08-28T01:12:01.126Z,987.6502
2022-08-28T01:13:01.249Z,987.7961
2022-08-28T01:14:01.869Z,987.7374
2022-08-28T01:15:00.551Z,987.8249
2022-08-28T01:16:00.748Z,987.8391
2022-08-28T01:17:00.874Z,987.8832
2022-08-28T01:18:12.192Z,987.7155
2022-08-28T01:19:01.136Z,987.803
2022-08-28T01:20:00.300Z,987.7891
2022-08-28T01:21:00.443Z,987.8183
2022-08-28T01:22:00.627Z,987.8252
2022-08-28T01:23:00.770Z,987.7669
2022-08-28T01:24:00.898Z,987.7961
2022-08-28T01:25:01.046Z,987.8391
2022-08-28T01:26:01.366Z,987.8249
2022-08-28T01:27:00.389Z,987.8541
2022-08-28T01:28:00.504Z,987.9477
2022-08-28T01:29:00.665Z,987.9185
2022-08-28T01:30:00.810Z,987.7891
2022-08-28T01:31:01.002Z,987.9616
2022-08-28T01:32:01.140Z,987.8846
2022-08-28T01:33:00.252Z,987.9769
2022-08-28T01:34:00.405Z,987.8777
2022-08-28T01:35:00.554Z,987.9922
2022-08-28T01:36:00.706Z,987.9279
2022-08-28T01:37:03.628Z,987.8054
2022-08-28T01:38:01.003Z,987.9922
2022-08-28T01:39:01.153Z,987.9338
2022-08-28T01:40:00.442Z,988.0727
2022-08-28T01:41:00.460Z,987.9421
2022-08-28T01:42:00.654Z,987.9783
2022-08-28T01:43:00.772Z,987.836
2022-08-28T01:44:00.926Z,988.1769
2022-08-28T01:45:01.071Z,988.0185
2022-08-28T01:46:01.316Z,988.0685
2022-08-28T01:47:00.414Z,988.0685
2022-08-28T01:48:00.530Z,988.0251
2022-08-28T01:49:00.735Z,988.1769
2022-08-28T01:50:00.833Z,988.0685
2022-08-28T01:51:00.970Z,987.8221
2022-08-28T01:52:01.160Z,987.9529
2022-08-28T01:53:00.277Z,988.0334
2022-08-28T01:54:00.428Z,988.0709
2022-08-28T01:55:00.568Z,987.9612
2022-08-28T01:56:00.735Z,987.9695
2022-08-28T01:57:00.902Z,988.1955
2022-08-28T01:58:01.025Z,988.1594
2022-08-28T01:59:01.176Z,988.0799
2022-08-28T02:00:00.336Z,988.2621
2022-08-28T02:01:00.483Z,988.2177
2022-08-28T02:02:00.705Z,988.2399
2022-08-28T02:03:00.811Z,988.109
2022-08-28T02:04:00.943Z,988.2257
2022-08-28T02:05:01.075Z,988.1677
2022-08-28T02:06:01.224Z,988.1968
2022-08-28T02:07:00.387Z,988.2892
2022-08-28T02:08:00.555Z,988.1826
2022-08-28T02:09:00.679Z,988.1382
2022-08-28T02:10:00.828Z,988.1965
2022-08-28T02:11:00.974Z,988.2621
2022-08-28T02:12:01.129Z,988.267
2022-08-28T02:13:00.310Z,988.2492
2022-08-28T02:14:00.433Z,988.1548
2022-08-28T02:15:00.585Z,988.185
2022-08-28T02:16:00.807Z,988.2916
2022-08-28T02:17:00.886Z,988.0985
2022-08-28T02:18:01.061Z,988.2443
2022-08-28T02:19:01.214Z,988.2856
2022-08-28T02:20:00.341Z,988.3731
2022-08-28T02:21:00.490Z,988.2526
2022-08-28T02:22:00.638Z,988.2526
2022-08-28T02:23:00.787Z,988.2317
2022-08-28T02:24:00.960Z,988.33
2022-08-28T02:25:01.120Z,988.1675
2022-08-28T02:26:01.234Z,988.1966
2022-08-28T02:27:00.393Z,988.2591
2022-08-28T02:28:00.536Z,988.2119
2022-08-28T02:29:00.684Z,988.2893
2022-08-28T02:30:00.868Z,988.2271
2022-08-28T02:31:01.107Z,988.2271
2022-08-28T02:32:01.136Z,988.4651
2022-08-28T02:33:00.289Z,988.4651
2022-08-28T02:34:00.440Z,988.242
2022-08-28T02:35:00.627Z,988.242
2022-08-28T02:36:00.737Z,988.4651
2022-08-28T02:37:00.893Z,988.1688
2022-08-28T02:38:01.046Z,988.2271
2022-08-28T02:39:01.189Z,988.3045
2022-08-28T02:40:00.425Z,988.2754
2022-08-28T02:41:00.515Z,988.242
2022-08-28T02:42:00.646Z,988.242
2022-08-28T02:43:00.794Z,988.3929
2022-08-28T02:44:00.944Z,988.429
2022-08-28T02:45:01.126Z,988.2281
2022-08-28T02:46:01.293Z,988.199
2022-08-28T02:47:00.385Z,988.4002
2022-08-28T02:48:00.539Z,988.2281
2022-08-28T02:49:00.684Z,988.2351
2022-08-28T02:50:00.857Z,988.3929
2022-08-28T02:51:01.000Z,988.1699
2022-08-28T02:52:01.137Z,988.4595
2022-08-28T02:53:00.306Z,988.3138
2022-08-28T02:54:00.444Z,988.2586
2022-08-28T02:55:00.627Z,988.3939
2022-08-28T02:56:00.749Z,988.3208
2022-08-28T02:57:00.909Z,988.3356
2022-08-28T02:58:01.059Z,988.2774
2022-08-28T02:59:01.202Z,988.3217
2022-08-28T03:00:00.378Z,988.4383
2022-08-28T03:01:00.549Z,988.3356
2022-08-28T03:02:00.662Z,988.2774
2022-08-28T03:03:00.882Z,988.2444
2022-08-28T03:04:00.952Z,988.4383
2022-08-28T03:05:01.138Z,988.2305
2022-08-28T03:07:00.353Z,988.2166
2022-08-28T03:08:00.506Z,988.2718
2022-08-28T03:09:00.675Z,988.38
2022-08-28T03:10:00.840Z,988.2658
2022-08-28T03:11:00.958Z,988.3254
2022-08-28T03:12:01.106Z,988.3032
2022-08-28T03:13:00.267Z,988.3032
2022-08-28T03:14:00.419Z,988.1968
2022-08-28T03:15:00.602Z,988.3906
2022-08-28T03:16:00.719Z,988.3324
2022-08-28T03:17:00.930Z,988.2963
2022-08-28T03:18:01.032Z,988.3032
2022-08-28T03:19:01.184Z,988.1968
2022-08-28T03:20:00.362Z,988.2602
2022-08-28T03:21:00.519Z,988.4128
2022-08-28T03:22:00.656Z,988.4058
2022-08-28T03:23:00.787Z,988.4128
2022-08-28T03:24:00.964Z,988.3836
2022-08-28T03:25:01.113Z,988.514
2022-08-28T03:26:00.294Z,988.5001
2022-08-28T03:27:00.410Z,988.4932
2022-08-28T03:28:00.579Z,988.3489
2022-08-28T03:29:00.732Z,988.472
2022-08-28T03:30:00.875Z,988.342
2022-08-28T03:31:01.154Z,988.2695
2022-08-28T03:32:01.200Z,988.4445
2022-08-28T03:33:00.328Z,988.4154
2022-08-28T03:34:00.480Z,988.3793
2022-08-28T03:35:00.639Z,988.4515
2022-08-28T03:36:00.814Z,988.4293
2022-08-28T03:37:00.935Z,988.4223
2022-08-28T03:38:01.088Z,988.4085
2022-08-28T03:39:01.234Z,988.4362
2022-08-28T03:40:00.483Z,988.378
2022-08-28T03:41:00.558Z,988.3198
2022-08-28T03:42:00.715Z,988.3932
2022-08-28T03:43:00.836Z,988.3721
2022-08-28T03:44:00.993Z,988.4015
2022-08-28T03:45:01.146Z,988.3724
2022-08-28T03:46:00.368Z,988.3433
2022-08-28T03:47:00.479Z,988.3724
2022-08-28T03:48:00.639Z,988.4091
2022-08-28T03:49:00.757Z,988.3287
2022-08-28T03:50:00.907Z,988.3588
2022-08-28T03:51:01.069Z,988.3297
2022-08-28T03:52:01.225Z,988.295
2022-08-28T03:53:00.406Z,988.4987
2022-08-28T03:54:00.522Z,988.4263
2022-08-28T03:55:00.672Z,988.4055
2022-08-28T03:56:00.823Z,988.4276
2022-08-28T03:57:00.967Z,988.3767
2022-08-28T03:58:01.155Z,988.551
2022-08-28T03:59:00.262Z,988.6095
2022-08-28T04:00:00.426Z,988.5953
2022-08-28T04:01:00.605Z,988.7699
2022-08-28T04:02:00.722Z,988.508
2022-08-28T04:03:00.953Z,988.508
2022-08-28T04:04:01.021Z,988.7338
2022-08-28T04:05:01.197Z,988.6544
2022-08-28T04:06:00.330Z,988.5896
2022-08-28T04:07:00.476Z,988.5823
2022-08-28T04:08:00.633Z,988.6544
2022-08-28T04:09:00.776Z,988.6184
2022-08-28T04:10:00.955Z,988.3926
2022-08-28T04:11:01.085Z,988.6617
2022-08-28T04:12:01.265Z,988.5232
2022-08-28T04:13:00.381Z,988.6978
2022-08-28T04:14:00.535Z,988.6978
2022-08-28T04:15:00.710Z,988.5662
2022-08-28T04:16:00.831Z,988.4789
2022-08-28T04:17:01.722Z,988.5953
2022-08-28T04:18:01.161Z,988.5953
2022-08-28T04:19:00.302Z,988.5662
2022-08-28T04:20:00.441Z,988.5953
2022-08-28T04:21:00.593Z,988.544
2022-08-28T04:22:00.744Z,988.5662
2022-08-28T04:23:00.921Z,988.4498
2022-08-28T04:24:01.039Z,988.4941
2022-08-28T04:25:01.221Z,988.6978
2022-08-28T04:26:00.358Z,988.8072
2022-08-28T04:27:00.492Z,988.7268
2022-08-28T04:28:00.645Z,988.6978
2022-08-28T04:29:00.793Z,988.7699
2022-08-28T04:30:00.971Z,988.6978
2022-08-28T04:31:01.097Z,988.8281
2022-08-28T04:32:01.332Z,988.7699
2022-08-28T04:33:00.398Z,988.5513
2022-08-28T04:34:00.553Z,988.5721
2022-08-28T04:35:00.733Z,988.507
2022-08-28T04:36:00.891Z,988.6161
2022-08-28T04:37:01.022Z,988.878
2022-08-28T04:38:02.520Z,988.8059
2022-08-28T04:39:00.317Z,988.6234
2022-08-28T04:40:00.598Z,988.9574
2022-08-28T04:41:00.633Z,988.6734
2022-08-28T04:42:00.761Z,988.7385
2022-08-28T04:43:00.916Z,988.7468
2022-08-28T04:44:01.077Z,988.9574
2022-08-28T04:45:01.269Z,988.6082
2022-08-28T04:46:00.400Z,988.8132
2022-08-28T04:47:00.526Z,988.8132
2022-08-28T04:48:00.687Z,988.842
2022-08-28T04:49:00.830Z,988.842
2022-08-28T04:50:01.009Z,988.9296
2022-08-28T04:51:01.167Z,988.7199
2022-08-28T04:52:00.278Z,988.9305
2022-08-28T04:53:00.441Z,988.8141
2022-08-28T04:54:00.590Z,988.8281
2022-08-28T04:55:00.736Z,988.835
2022-08-28T04:56:00.917Z,988.8059
2022-08-28T04:57:01.022Z,988.7268
2022-08-28T04:58:01.188Z,988.8862
2022-08-28T04:59:00.338Z,988.8224
2022-08-28T05:00:00.486Z,988.7639
2022-08-28T05:01:00.693Z,988.8945
2022-08-28T05:02:00.840Z,988.7781
2022-08-28T05:03:00.932Z,988.8723
2022-08-28T05:04:01.082Z,988.8802
2022-08-28T05:05:01.244Z,988.8432
2022-08-28T05:06:00.428Z,988.8641
2022-08-28T05:07:00.551Z,988.799
2022-08-28T05:08:00.698Z,988.9296
2022-08-28T05:09:00.842Z,988.8853
2022-08-28T05:10:00.991Z,988.9935
2022-08-28T05:11:01.165Z,989.0156
2022-08-28T05:12:00.291Z,989.0308
2022-08-28T05:13:00.432Z,989.0017
2022-08-28T05:14:00.584Z,988.9305
2022-08-28T05:15:00.727Z,989.0994
2022-08-28T05:16:00.956Z,989.07
2022-08-28T05:17:01.039Z,989.0839
2022-08-28T05:18:01.187Z,989.0178
2022-08-28T05:19:00.380Z,989.0551
2022-08-28T05:20:00.489Z,989.1782
2022-08-28T05:21:00.660Z,989.0921
2022-08-28T05:22:00.807Z,989.0851
2022-08-28T05:23:00.939Z,989.0722
2022-08-28T05:24:01.095Z,989.1012
2022-08-28T05:25:01.235Z,989.0004
2022-08-28T05:26:00.386Z,989.0225
2022-08-28T05:27:00.571Z,988.9934
2022-08-28T05:28:00.713Z,989.0525
2022-08-28T05:29:00.841Z,988.9362
2022-08-28T05:30:02.071Z,989.0443
2022-08-28T05:31:01.154Z,989.0525
2022-08-28T05:32:00.392Z,988.9795
2022-08-28T05:33:00.473Z,989.0516
2022-08-28T05:34:00.602Z,989.2315
2022-08-28T05:35:00.762Z,989.1724
2022-08-28T05:36:00.910Z,989.0561
2022-08-28T05:37:01.093Z,989.07
2022-08-28T05:38:01.236Z,989.2003
2022-08-28T05:39:00.367Z,989.2003
2022-08-28T05:40:00.580Z,989.1421
2022-08-28T05:41:00.672Z,989.2797
2022-08-28T05:42:00.832Z,989.2879
2022-08-28T05:43:00.963Z,989.1933
2022-08-28T05:44:01.130Z,989.1285
2022-08-28T05:45:00.265Z,989.1864
2022-08-28T05:46:00.469Z,989.1806
2022-08-28T05:47:00.588Z,989.0643
2022-08-28T05:48:00.731Z,989.2015
2022-08-28T05:49:00.871Z,989.2897
2022-08-28T05:50:01.017Z,989.2912
2022-08-28T05:51:01.172Z,989.3133
2022-08-28T05:52:00.329Z,989.1749
2022-08-28T05:53:00.484Z,989.4297
2022-08-28T05:54:00.620Z,989.297
2022-08-28T05:55:00.765Z,989.2888
2022-08-28T05:56:00.919Z,989.383
2022-08-28T05:57:01.068Z,989.2606
2022-08-28T05:58:01.244Z,989.4061
2022-08-28T05:59:00.374Z,989.377
2022-08-28T06:00:00.527Z,989.297
2022-08-28T06:01:00.679Z,989.4052
2022-08-28T06:02:04.145Z,989.3761
2022-08-28T06:03:01.002Z,989.4924
2022-08-28T06:04:01.241Z,989.4342
2022-08-28T06:05:00.274Z,989.3179
2022-08-28T06:06:00.429Z,989.2306
2022-08-28T06:07:00.581Z,989.4109
2022-08-28T06:08:00.745Z,989.41
2022-08-28T06:09:00.872Z,989.3518
2022-08-28T06:10:01.019Z,989.4834
2022-08-28T06:11:01.175Z,989.4482
2022-08-28T06:12:00.340Z,989.4924
2022-08-28T06:13:00.489Z,989.2621
2022-08-28T06:14:00.661Z,989.5085
2022-08-28T06:15:00.783Z,989.5097
2022-08-28T06:16:00.977Z,989.5097
2022-08-28T06:17:01.084Z,989.4224
2022-08-28T06:18:01.236Z,989.4306
2022-08-28T06:19:00.691Z,989.4015
2022-08-28T06:20:00.534Z,989.4006
2022-08-28T06:21:00.684Z,989.5666
2022-08-28T06:22:00.840Z,989.4794
2022-08-28T06:23:00.988Z,989.626
2022-08-28T06:24:01.164Z,989.569
2022-08-28T06:25:00.292Z,989.519
2022-08-28T06:26:00.441Z,989.6577
2022-08-28T06:27:00.595Z,989.6577
2022-08-28T06:28:00.747Z,989.4396
2022-08-28T06:29:00.906Z,989.5408
2022-08-28T06:30:01.057Z,989.519
2022-08-28T06:31:18.573Z,989.6132
2022-08-28T06:32:00.429Z,989.7416
2022-08-28T06:33:00.587Z,989.519
2022-08-28T06:34:00.660Z,989.5838
2022-08-28T06:35:00.813Z,989.6983
2022-08-28T06:36:00.944Z,989.5699
2022-08-28T06:37:01.090Z,989.519
2022-08-28T06:38:01.249Z,989.5772
2022-08-28T06:39:00.398Z,989.5929
2022-08-28T06:40:00.621Z,989.5929
2022-08-28T06:41:00.698Z,989.5838
2022-08-28T06:42:00.839Z,989.5608
2022-08-28T06:43:00.990Z,989.7032
2022-08-28T06:44:01.141Z,989.5957
2022-08-28T06:45:00.317Z,989.5751
2022-08-28T06:46:00.505Z,989.6954
2022-08-28T06:47:00.596Z,989.6333
2022-08-28T06:48:00.749Z,989.6562
2022-08-28T06:49:00.904Z,989.7056
2022-08-28T06:50:01.065Z,989.6852
2022-08-28T06:51:01.229Z,989.8605
2022-08-28T06:52:00.345Z,989.7009
2022-08-28T06:53:00.496Z,989.7451
2022-08-28T06:54:00.651Z,989.7451
2022-08-28T06:55:00.812Z,989.8605
2022-08-28T06:56:00.967Z,989.8306
2022-08-28T06:57:01.102Z,989.7001
2022-08-28T06:58:01.251Z,989.7652
2022-08-28T06:59:00.401Z,989.6441
2022-08-28T07:00:00.558Z,989.6662
2022-08-28T07:01:02.984Z,989.8803
2022-08-28T07:02:01.073Z,989.7349
2022-08-28T07:03:01.067Z,989.8803
2022-08-28T07:04:01.170Z,989.9027
2022-08-28T07:05:00.328Z,989.8446
2022-08-28T07:06:00.475Z,989.9385
2022-08-28T07:07:00.666Z,989.6731
2022-08-28T07:08:00.779Z,989.8219
2022-08-28T07:09:00.931Z,989.8065
2022-08-28T07:10:01.080Z,989.851
2022-08-28T07:11:01.223Z,989.7634
2022-08-28T07:12:00.397Z,989.967
2022-08-28T07:13:00.530Z,989.8515
2022-08-28T07:14:00.673Z,989.7707
2022-08-28T07:15:00.836Z,989.8859
2022-08-28T07:16:01.050Z,989.8269
2022-08-28T07:17:01.147Z,989.8408
2022-08-28T07:18:00.281Z,989.8859
2022-08-28T07:19:00.436Z,989.9941
2022-08-28T07:20:00.585Z,989.9778
2022-08-28T07:21:00.734Z,989.7021
2022-08-28T07:22:00.897Z,989.9941
2022-08-28T07:23:01.059Z,989.6954
2022-08-28T07:24:01.188Z,989.7803
2022-08-28T07:25:00.336Z,989.961
2022-08-28T07:26:00.482Z,989.8217
2022-08-28T07:27:00.625Z,989.6901
2022-08-28T07:28:00.811Z,989.8065
2022-08-28T07:29:10.714Z,989.7411
2022-08-28T07:30:01.120Z,989.9218
2022-08-28T07:31:01.305Z,989.8927
2022-08-28T07:32:00.415Z,989.746
2022-08-28T07:33:00.547Z,989.7958
2022-08-28T07:34:00.702Z,989.9402
2022-08-28T07:35:00.885Z,989.7876
2022-08-28T07:36:01.069Z,989.9099
2022-08-28T07:37:01.184Z,989.7713
2022-08-28T07:38:00.336Z,989.7422
2022-08-28T07:39:00.471Z,989.8354
2022-08-28T07:40:00.701Z,989.9511
2022-08-28T07:41:00.769Z,989.9511
2022-08-28T07:42:00.918Z,989.8407
2022-08-28T07:43:01.068Z,989.7303
2022-08-28T07:44:01.226Z,989.7661
2022-08-28T07:45:00.387Z,989.7792
2022-08-28T07:46:00.593Z,989.7431
2022-08-28T07:47:00.686Z,989.7653
2022-08-28T07:48:00.835Z,989.7804
2022-08-28T07:49:00.980Z,989.7953
2022-08-28T07:50:01.156Z,989.7883
2022-08-28T07:51:00.283Z,989.7813
2022-08-28T07:52:00.436Z,989.8174
2022-08-28T07:53:00.590Z,989.9129
2022-08-28T07:54:00.736Z,989.7964
2022-08-28T07:55:00.904Z,989.8244
2022-08-28T07:56:01.041Z,989.8818
2022-08-28T07:57:01.212Z,989.8678
2022-08-28T07:58:00.345Z,989.9249
2022-08-28T07:59:00.505Z,989.9401
2022-08-28T08:00:00.648Z,989.8457
2022-08-28T08:01:00.797Z,989.9401
2022-08-28T08:02:00.967Z,989.8235
2022-08-28T08:03:01.130Z,989.9311
2022-08-28T08:04:01.651Z,989.7854
2022-08-28T08:05:00.413Z,989.8949
2022-08-28T08:06:00.571Z,989.8005
2022-08-28T08:07:00.746Z,989.9019
2022-08-28T08:08:00.910Z,989.8375
2022-08-28T08:09:01.017Z,989.8737
2022-08-28T08:10:01.170Z,989.8818
2022-08-28T08:11:00.315Z,989.8527
2022-08-28T08:12:00.497Z,989.9401
2022-08-28T08:13:00.635Z,989.8667
2022-08-28T08:14:00.773Z,989.9894
2022-08-28T08:15:00.927Z,990.0395
2022-08-28T08:16:01.167Z,989.9582
2022-08-28T08:17:01.243Z,989.9008
2022-08-28T08:18:00.388Z,989.9008
2022-08-28T08:19:00.532Z,989.9291
2022-08-28T08:20:00.680Z,989.8186
2022-08-28T08:21:00.832Z,989.8014
2022-08-28T08:22:01.003Z,989.8446
2022-08-28T08:23:01.139Z,989.9735
2022-08-28T08:24:00.297Z,990.0237
2022-08-28T08:25:00.444Z,989.8266
2022-08-28T08:26:00.610Z,990.125
2022-08-28T08:27:01.079Z,989.9269
2022-08-28T08:28:00.912Z,989.9482
2022-08-28T08:29:01.050Z,990.0852
2022-08-28T08:30:01.206Z,989.8657
2022-08-28T08:31:00.412Z,989.8879
2022-08-28T08:32:00.511Z,989.9101
2022-08-28T08:33:00.659Z,990.0133
2022-08-28T08:34:00.813Z,990.0276
2022-08-28T08:35:00.960Z,990.0338
2022-08-28T08:36:01.114Z,989.9763
2022-08-28T08:37:00.290Z,990.0257
2022-08-28T08:38:02.861Z,990.1194
2022-08-28T08:39:00.732Z,989.9294
2022-08-28T08:40:00.865Z,990.1056
2022-08-28T08:41:00.876Z,989.9985
2022-08-28T08:42:01.047Z,989.9693
2022-08-28T08:43:01.165Z,990.0046
2022-08-28T08:44:00.338Z,989.9241
2022-08-28T08:45:00.462Z,990.0473
2022-08-28T08:46:00.636Z,989.9614
2022-08-28T08:47:00.791Z,989.9842
2022-08-28T08:48:00.924Z,989.9965
2022-08-28T08:49:01.091Z,989.871
2022-08-28T08:50:01.242Z,989.986
2022-08-28T08:51:00.400Z,989.9928
2022-08-28T08:52:00.575Z,989.9706
2022-08-28T08:53:00.720Z,989.9262
2022-08-28T08:54:00.839Z,990.1073
2022-08-28T08:55:00.987Z,990.1497
2022-08-28T08:56:01.166Z,990.2062
2022-08-28T08:57:00.295Z,990.0868
2022-08-28T08:58:00.438Z,989.9407
2022-08-28T08:59:00.611Z,990.2304
2022-08-28T09:00:00.745Z,990.1863
2022-08-28T09:01:00.989Z,990.0132
2022-08-28T09:02:01.058Z,990.0857
2022-08-28T09:03:01.277Z,990.2304
2022-08-28T09:04:00.387Z,990.1278
2022-08-28T09:05:00.484Z,990.2529
2022-08-28T09:06:00.635Z,990.0424
2022-08-28T09:07:00.788Z,990.1593
2022-08-28T09:08:00.940Z,990.1742
2022-08-28T09:09:01.109Z,990.2851
2022-08-28T09:10:01.256Z,990.0576
2022-08-28T09:11:00.408Z,990.159
2022-08-28T09:12:00.553Z,989.9837
2022-08-28T09:13:00.705Z,990.2012
2022-08-28T09:14:00.870Z,990.0323
2022-08-28T09:15:00.993Z,990.127
2022-08-28T09:16:01.157Z,990.0857
2022-08-28T09:17:00.300Z,990.1228
2022-08-28T09:18:00.456Z,990.1301
2022-08-28T09:19:00.629Z,990.2941
2022-08-28T09:20:00.782Z,990.2416
2022-08-28T09:21:00.910Z,990.0716
2022-08-28T09:22:01.070Z,990.0857
2022-08-28T09:23:02.143Z,990.1711
2022-08-28T09:24:00.375Z,990.1635
2022-08-28T09:25:00.536Z,990.118
2022-08-28T09:26:01.653Z,990.1967
2022-08-28T09:27:00.866Z,990.116
2022-08-28T09:28:01.003Z,990.1382
2022-08-28T09:29:01.148Z,990.1745
2022-08-28T09:30:02.538Z,990.1051
2022-08-28T09:31:00.526Z,990.345
2022-08-28T09:32:00.614Z,990.1171
2022-08-28T09:33:00.755Z,990.1152
2022-08-28T09:34:01.009Z,990.0488
2022-08-28T09:35:01.045Z,990.2525
2022-08-28T09:36:01.199Z,990.1194
2022-08-28T09:37:00.374Z,990.2295
2022-08-28T09:38:00.503Z,990.1416
2022-08-28T09:39:00.654Z,990.178
2022-08-28T09:40:00.855Z,990.2143
2022-08-28T09:41:00.961Z,990.2134
2022-08-28T09:42:01.133Z,990.1692
2022-08-28T09:43:00.260Z,990.0884
2022-08-28T09:44:00.410Z,990.0456
2022-08-28T09:45:00.569Z,990.0448
2022-08-28T09:46:00.802Z,990.154
2022-08-28T09:47:00.892Z,990.0884
2022-08-28T09:48:01.038Z,990.2571
2022-08-28T09:49:01.181Z,990.1495
2022-08-28T09:50:00.327Z,990.0963
2022-08-28T09:51:00.489Z,990.0349
2022-08-28T09:52:00.639Z,990.2478
2022-08-28T09:53:00.790Z,990.2782
2022-08-28T09:54:00.929Z,990.0884
2022-08-28T09:55:01.098Z,990.2247
2022-08-28T09:56:01.257Z,990.3975
2022-08-28T09:57:00.380Z,990.3958
2022-08-28T09:58:00.584Z,990.138
2022-08-28T09:59:00.699Z,990.1217
2022-08-28T10:00:00.848Z,990.1665
2022-08-28T10:01:01.004Z,990.2158
2022-08-28T10:02:01.222Z,990.1126
2022-08-28T10:03:03.294Z,990.2271
2022-08-28T10:04:00.486Z,990.1445
2022-08-28T10:05:00.588Z,990.3194
2022-08-28T10:06:00.760Z,990.1583
2022-08-28T10:07:00.902Z,990.2619
2022-08-28T10:08:01.055Z,990.3061
2022-08-28T10:09:01.227Z,990.2181
2022-08-28T10:10:00.350Z,990.21
2022-08-28T10:11:00.509Z,990.2119
2022-08-28T10:12:00.647Z,990.2432
2022-08-28T10:13:00.792Z,990.1665
2022-08-28T10:14:00.963Z,990.3885
2022-08-28T10:15:01.091Z,990.2146
2022-08-28T10:16:01.325Z,990.3248
2022-08-28T10:17:00.400Z,990.3248
2022-08-28T10:18:00.556Z,990.3834
2022-08-28T10:19:00.707Z,990.2662
2022-08-28T10:20:00.847Z,990.2662
2022-08-28T10:21:01.005Z,990.3611
2022-08-28T10:22:01.162Z,990.4975
2022-08-28T10:23:00.314Z,990.3967
2022-08-28T10:24:00.442Z,990.5613
2022-08-28T10:25:00.586Z,990.5249
2022-08-28T10:26:00.741Z,990.5249
2022-08-28T10:27:00.882Z,990.4252
2022-08-28T10:28:01.060Z,990.3815
2022-08-28T10:29:01.180Z,990.4249
2022-08-28T10:30:05.168Z,990.5249
2022-08-28T10:31:00.553Z,990.3502
2022-08-28T10:32:00.637Z,990.3554
2022-08-28T10:33:00.797Z,990.3988
2022-08-28T10:34:00.949Z,990.4352
2022-08-28T10:35:01.091Z,990.2514
2022-08-28T10:36:01.264Z,990.4845
2022-08-28T10:37:00.408Z,990.3323
2022-08-28T10:38:00.554Z,990.31
2022-08-28T10:39:00.697Z,990.3249
2022-08-28T10:40:00.908Z,990.3108
2022-08-28T10:41:01.034Z,990.3988
2022-08-28T10:42:01.159Z,990.5138
2022-08-28T10:43:00.292Z,990.3393
2022-08-28T10:44:00.436Z,990.4352
2022-08-28T10:45:01.272Z,990.2592
2022-08-28T10:46:00.810Z,990.2897
2022-08-28T10:47:00.927Z,990.2682
2022-08-28T10:48:01.054Z,990.2905
2022-08-28T10:49:01.212Z,990.3785
2022-08-28T10:50:00.344Z,990.1431
2022-08-28T10:51:00.494Z,990.3543
2022-08-28T10:52:00.670Z,990.2796
2022-08-28T10:53:00.818Z,990.2999
2022-08-28T10:54:01.061Z,990.3273
2022-08-28T10:55:01.129Z,990.1583
2022-08-28T10:56:01.253Z,990.3702
2022-08-28T10:57:00.404Z,990.2966
2022-08-28T10:58:00.615Z,990.1863
2022-08-28T10:59:00.731Z,990.2295
2022-08-28T11:00:00.868Z,990.2365
2022-08-28T11:01:01.152Z,990.3093
2022-08-28T11:02:01.179Z,990.4823
2022-08-28T11:03:00.514Z,990.3297
2022-08-28T11:04:00.472Z,990.1829
2022-08-28T11:05:00.628Z,990.1821
2022-08-28T11:06:00.767Z,990.1668
2022-08-28T11:07:00.923Z,990.2165
2022-08-28T11:08:01.110Z,990.2584
2022-08-28T11:09:01.218Z,990.2137
2022-08-28T11:10:00.381Z,990.2725
2022-08-28T11:11:00.529Z,990.3242
2022-08-28T11:12:02.295Z,990.3323
2022-08-28T11:13:00.847Z,990.3038
2022-08-28T11:14:00.999Z,990.3919
2022-08-28T11:15:01.131Z,990.4291
2022-08-28T11:16:00.287Z,990.253
2022-08-28T11:17:00.502Z,990.334
2022-08-28T11:18:00.590Z,990.2693
2022-08-28T11:19:00.753Z,990.2247
2022-08-28T11:20:00.873Z,990.334
2022-08-28T11:21:01.026Z,990.2894
2022-08-28T11:22:01.202Z,990.2388
2022-08-28T11:23:00.325Z,990.2298
2022-08-28T11:24:00.489Z,990.1996
2022-08-28T11:25:04.315Z,990.4193
2022-08-28T11:26:00.793Z,990.3606
2022-08-28T11:27:00.937Z,990.3818
2022-08-28T11:28:01.092Z,990.4888
2022-08-28T11:29:01.257Z,990.3584
2022-08-28T11:30:00.384Z,990.4163
2022-08-28T11:31:00.618Z,990.3203
2022-08-28T11:32:00.696Z,990.3265
2022-08-28T11:33:00.841Z,990.4932
2022-08-28T11:34:01.031Z,990.5528
2022-08-28T11:35:01.142Z,990.5014
2022-08-28T11:36:00.298Z,990.4084
2022-08-28T11:37:00.447Z,990.4449
2022-08-28T11:38:00.598Z,990.4359
2022-08-28T11:39:00.745Z,990.3913
2022-08-28T11:40:00.946Z,990.3905
2022-08-28T11:41:01.044Z,990.3521
2022-08-28T11:42:01.194Z,990.2181
2022-08-28T11:43:00.344Z,990.3558
2022-08-28T11:44:00.484Z,990.3765
2022-08-28T11:45:00.650Z,990.3969
2022-08-28T11:46:01.013Z,990.3008
2022-08-28T11:47:00.940Z,990.3969